BWA1530 TTCP-KFLL
Flight info
| Callsign | BWA1530 |
|---|---|
| Flight time | N/A |
| Altitude | 34000 |
| Route | TAB DCT GND DCT ANADA L452 BQN DCT OLAHS OLAHS3 |
| Aircraft | B738/M-SDE2E3FGHIRWXY/LB1 |
Departure
| Time | 2026-04-25 21:15 |
|---|---|
| Airport | A.N.R. Robinson International Airport (TTCP) |
Arrival
| Time | N/A |
|---|---|
| Airport | Fort Lauderdale Hollywood International Airport (KFLL) |
| Time | Latitude | Longitude | Altitude | Speed | Heading |
|---|---|---|---|---|---|
| 2026-04-25 18:50 | 11.15188 | -60.84003 | 42 ft | 0 kts | 7° |
| 2026-04-25 21:05 | 11.15178 | -60.84004 | 42 ft | 2 kts | 8° |
| 2026-04-25 21:05 | 11.15163 | -60.84006 | 42 ft | 2 kts | 6° |
| 2026-04-25 21:06 | 11.15148 | -60.84008 | 42 ft | 2 kts | 8° |
| 2026-04-25 21:06 | 11.15136 | -60.84010 | 42 ft | 1 kts | 8° |
| 2026-04-25 21:06 | 11.15130 | -60.84009 | 42 ft | 0 kts | 309° |
| 2026-04-25 21:06 | 11.15128 | -60.84005 | 42 ft | 0 kts | 274° |
| 2026-04-25 21:07 | 11.15125 | -60.83994 | 42 ft | 2 kts | 304° |
| 2026-04-25 21:07 | 11.15117 | -60.83982 | 42 ft | 1 kts | 298° |
| 2026-04-25 21:07 | 11.15114 | -60.83976 | 42 ft | 0 kts | 277° |
| 2026-04-25 21:07 | 11.15114 | -60.83974 | 42 ft | 0 kts | 274° |
| 2026-04-25 21:11 | 11.15115 | -60.83993 | 42 ft | 9 kts | 276° |
| 2026-04-25 21:12 | 11.15120 | -60.84083 | 42 ft | 12 kts | 256° |
| 2026-04-25 21:12 | 11.15073 | -60.84155 | 42 ft | 13 kts | 229° |
| 2026-04-25 21:12 | 11.15043 | -60.84273 | 39 ft | 24 kts | 274° |
| 2026-04-25 21:12 | 11.15053 | -60.84371 | 38 ft | 19 kts | 279° |
| 2026-04-25 21:13 | 11.15025 | -60.84375 | 38 ft | 9 kts | 47° |
| 2026-04-25 21:13 | 11.15044 | -60.84331 | 38 ft | 4 kts | 85° |
| 2026-04-25 21:13 | 11.15045 | -60.84314 | 39 ft | 0 kts | 86° |
| 2026-04-25 21:13 | 11.15046 | -60.84300 | 39 ft | 7 kts | 87° |
| 2026-04-25 21:14 | 11.15046 | -60.84297 | 39 ft | 0 kts | 87° |
| 2026-04-25 21:14 | 11.15036 | -60.84146 | 42 ft | 57 kts | 95° |
| 2026-04-25 21:15 | 11.14984 | -60.83486 | 48 ft | 129 kts | 92° |
| 2026-04-25 21:15 | 11.14906 | -60.82364 | 132 ft | 180 kts | 95° |
| 2026-04-25 21:15 | 11.14871 | -60.81124 | 1033 ft | 174 kts | 91° |
| 2026-04-25 21:15 | 11.14857 | -60.79980 | 2037 ft | 164 kts | 93° |
| 2026-04-25 21:16 | 11.14814 | -60.78797 | 2756 ft | 171 kts | 93° |
| 2026-04-25 21:16 | 11.14896 | -60.77614 | 3485 ft | 177 kts | 71° |
| 2026-04-25 21:16 | 11.15577 | -60.76516 | 4070 ft | 194 kts | 50° |
| 2026-04-25 21:16 | 11.16769 | -60.75752 | 4627 ft | 214 kts | 22° |
| 2026-04-25 21:17 | 11.18233 | -60.75303 | 5228 ft | 228 kts | 18° |
| 2026-04-25 21:17 | 11.19880 | -60.75217 | 5729 ft | 253 kts | 347° |
| 2026-04-25 21:17 | 11.21453 | -60.76144 | 6329 ft | 271 kts | 315° |
| 2026-04-25 21:17 | 11.22658 | -60.77634 | 7094 ft | 271 kts | 307° |
| 2026-04-25 21:18 | 11.23803 | -60.79154 | 7660 ft | 275 kts | 308° |
| 2026-04-25 21:18 | 11.24995 | -60.80692 | 8128 ft | 285 kts | 309° |
| 2026-04-25 21:18 | 11.26263 | -60.82318 | 8538 ft | 296 kts | 308° |
| 2026-04-25 21:18 | 11.27546 | -60.83969 | 9132 ft | 301 kts | 308° |
| 2026-04-25 21:19 | 11.28843 | -60.85644 | 9730 ft | 304 kts | 308° |
| 2026-04-25 21:19 | 11.30148 | -60.87335 | 10263 ft | 309 kts | 308° |
| 2026-04-25 21:19 | 11.31521 | -60.89116 | 10581 ft | 324 kts | 308° |
| 2026-04-25 21:19 | 11.32948 | -60.90967 | 10910 ft | 337 kts | 308° |
| 2026-04-25 21:20 | 11.34412 | -60.92866 | 11193 ft | 351 kts | 308° |
| 2026-04-25 21:20 | 11.35446 | -60.94206 | 11346 ft | 362 kts | 308° |
| 2026-04-25 21:20 | 11.37557 | -60.96941 | 11855 ft | 374 kts | 308° |
| 2026-04-25 21:20 | 11.39154 | -60.99011 | 12424 ft | 377 kts | 308° |
| 2026-04-25 21:21 | 11.40780 | -61.01119 | 12981 ft | 381 kts | 308° |
| 2026-04-25 21:21 | 11.42427 | -61.03255 | 13567 ft | 383 kts | 308° |
| 2026-04-25 21:21 | 11.44089 | -61.05411 | 14148 ft | 386 kts | 308° |
| 2026-04-25 21:21 | 11.45738 | -61.07552 | 14701 ft | 389 kts | 308° |
| 2026-04-25 21:22 | 11.47409 | -61.09722 | 15250 ft | 392 kts | 308° |
| 2026-04-25 21:22 | 11.49113 | -61.11935 | 15754 ft | 397 kts | 308° |
| 2026-04-25 21:22 | 11.50804 | -61.14132 | 16350 ft | 398 kts | 308° |
| 2026-04-25 21:22 | 11.52534 | -61.16381 | 16783 ft | 403 kts | 308° |
| 2026-04-25 21:23 | 11.54251 | -61.18612 | 17284 ft | 406 kts | 308° |
| 2026-04-25 21:23 | 11.56012 | -61.20900 | 17783 ft | 409 kts | 308° |
| 2026-04-25 21:23 | 11.57758 | -61.23170 | 18295 ft | 411 kts | 307° |
| 2026-04-25 21:23 | 11.59547 | -61.25496 | 18776 ft | 414 kts | 308° |
| 2026-04-25 21:24 | 11.61314 | -61.27794 | 19238 ft | 417 kts | 307° |
| 2026-04-25 21:24 | 11.63101 | -61.30116 | 19727 ft | 419 kts | 307° |
| 2026-04-25 21:24 | 11.64898 | -61.32453 | 20214 ft | 421 kts | 307° |
| 2026-04-25 21:24 | 11.66711 | -61.34811 | 20655 ft | 423 kts | 308° |
| 2026-04-25 21:25 | 11.68538 | -61.37187 | 21105 ft | 426 kts | 308° |
| 2026-04-25 21:25 | 11.70353 | -61.39550 | 21578 ft | 427 kts | 307° |
| 2026-04-25 21:25 | 11.72195 | -61.41949 | 21982 ft | 429 kts | 307° |
| 2026-04-25 21:25 | 11.74049 | -61.44364 | 22412 ft | 431 kts | 307° |
| 2026-04-25 21:26 | 11.75890 | -61.46762 | 22825 ft | 433 kts | 307° |
| 2026-04-25 21:26 | 11.77759 | -61.49199 | 23214 ft | 436 kts | 307° |
| 2026-04-25 21:26 | 11.79631 | -61.51641 | 23561 ft | 440 kts | 307° |
| 2026-04-25 21:26 | 11.81516 | -61.54099 | 23926 ft | 442 kts | 307° |
| 2026-04-25 21:27 | 11.83411 | -61.56569 | 24290 ft | 445 kts | 307° |
| 2026-04-25 21:27 | 11.85343 | -61.59089 | 24629 ft | 449 kts | 307° |
| 2026-04-25 21:27 | 11.87258 | -61.61589 | 24980 ft | 451 kts | 307° |
| 2026-04-25 21:27 | 11.89207 | -61.64134 | 25334 ft | 454 kts | 307° |
| 2026-04-25 21:28 | 11.91145 | -61.66666 | 25675 ft | 457 kts | 306° |
| 2026-04-25 21:28 | 11.93128 | -61.69257 | 26007 ft | 459 kts | 306° |
| 2026-04-25 21:28 | 11.95078 | -61.71806 | 26372 ft | 461 kts | 306° |
| 2026-04-25 21:28 | 11.97057 | -61.74383 | 26701 ft | 464 kts | 307° |
| 2026-04-25 21:29 | 11.99102 | -61.76955 | 27052 ft | 466 kts | 309° |
| 2026-04-25 21:29 | 12.01319 | -61.79368 | 27338 ft | 471 kts | 315° |
| 2026-04-25 21:29 | 12.03809 | -61.81622 | 27630 ft | 474 kts | 319° |
| 2026-04-25 21:29 | 12.06383 | -61.83709 | 27941 ft | 477 kts | 321° |
| 2026-04-25 21:30 | 12.09065 | -61.85765 | 28253 ft | 480 kts | 322° |
| 2026-04-25 21:30 | 12.11754 | -61.87780 | 28510 ft | 483 kts | 322° |
| 2026-04-25 21:30 | 12.14459 | -61.89800 | 28801 ft | 485 kts | 322° |
| 2026-04-25 21:30 | 12.16287 | -61.91169 | 29138 ft | 483 kts | 322° |
| 2026-04-25 21:31 | 12.19855 | -61.93859 | 29773 ft | 479 kts | 321° |
| 2026-04-25 21:31 | 12.22529 | -61.95895 | 30176 ft | 478 kts | 321° |
| 2026-04-25 21:31 | 12.25180 | -61.97925 | 30595 ft | 476 kts | 321° |
| 2026-04-25 21:31 | 12.27811 | -61.99950 | 31018 ft | 474 kts | 320° |
| 2026-04-25 21:32 | 12.30463 | -62.01998 | 31479 ft | 471 kts | 320° |
| 2026-04-25 21:32 | 12.33038 | -62.03994 | 31881 ft | 469 kts | 320° |
| 2026-04-25 21:32 | 12.35646 | -62.06020 | 32259 ft | 467 kts | 320° |
| 2026-04-25 21:32 | 12.38231 | -62.08031 | 32596 ft | 466 kts | 320° |
| 2026-04-25 21:33 | 12.40802 | -62.10034 | 32965 ft | 464 kts | 320° |
| 2026-04-25 21:33 | 12.43365 | -62.12029 | 33391 ft | 462 kts | 319° |
| 2026-04-25 21:33 | 12.45916 | -62.14015 | 33779 ft | 460 kts | 319° |
| 2026-04-25 21:33 | 12.48453 | -62.15992 | 33881 ft | 462 kts | 319° |
| 2026-04-25 21:34 | 12.53570 | -62.19981 | 33883 ft | 460 kts | 319° |
| 2026-04-25 21:34 | 12.58675 | -62.23960 | 33884 ft | 460 kts | 319° |
| 2026-04-25 21:35 | 12.63786 | -62.27948 | 33884 ft | 460 kts | 319° |
| 2026-04-25 21:35 | 12.68901 | -62.31940 | 33884 ft | 459 kts | 319° |
| 2026-04-25 21:36 | 12.73985 | -62.35909 | 33885 ft | 460 kts | 319° |
| 2026-04-25 21:36 | 12.79062 | -62.39875 | 33883 ft | 460 kts | 319° |
| 2026-04-25 21:37 | 12.83303 | -62.43188 | 33885 ft | 459 kts | 319° |
| 2026-04-25 21:37 | 12.89212 | -62.47807 | 33890 ft | 459 kts | 319° |
| 2026-04-25 21:38 | 12.94331 | -62.51812 | 33893 ft | 460 kts | 319° |
| 2026-04-25 21:38 | 12.99410 | -62.55788 | 33894 ft | 459 kts | 319° |
| 2026-04-25 21:39 | 13.04480 | -62.59757 | 33892 ft | 459 kts | 319° |
| 2026-04-25 21:39 | 13.09557 | -62.63736 | 33894 ft | 460 kts | 319° |
| 2026-04-25 21:40 | 13.14669 | -62.67744 | 33894 ft | 459 kts | 319° |
| 2026-04-25 21:40 | 13.19765 | -62.71742 | 33894 ft | 460 kts | 319° |
| 2026-04-25 21:41 | 13.24845 | -62.75729 | 33894 ft | 460 kts | 319° |
| 2026-04-25 21:41 | 13.29935 | -62.79727 | 33892 ft | 460 kts | 319° |
| 2026-04-25 21:42 | 13.35027 | -62.83730 | 33895 ft | 461 kts | 319° |
| 2026-04-25 21:42 | 13.40129 | -62.87740 | 33901 ft | 461 kts | 319° |
| 2026-04-25 21:43 | 13.45200 | -62.91727 | 33904 ft | 459 kts | 319° |
| 2026-04-25 21:43 | 13.50302 | -62.95742 | 33904 ft | 462 kts | 319° |
| 2026-04-25 21:44 | 13.55416 | -62.99768 | 33904 ft | 461 kts | 319° |
| 2026-04-25 21:45 | 13.63049 | -63.05782 | 33905 ft | 460 kts | 319° |
| 2026-04-25 21:45 | 13.68138 | -63.09793 | 33904 ft | 459 kts | 319° |
| 2026-04-25 21:46 | 13.73196 | -63.13784 | 33905 ft | 460 kts | 319° |
| 2026-04-25 21:46 | 13.78264 | -63.17785 | 33905 ft | 459 kts | 319° |
| 2026-04-25 21:47 | 13.83325 | -63.21780 | 33904 ft | 459 kts | 319° |
| 2026-04-25 21:47 | 13.88409 | -63.25796 | 33904 ft | 460 kts | 318° |
| 2026-04-25 21:48 | 13.93466 | -63.29795 | 33905 ft | 460 kts | 319° |
| 2026-04-25 21:48 | 13.98547 | -63.33813 | 33905 ft | 460 kts | 318° |
| 2026-04-25 21:49 | 14.03625 | -63.37835 | 33905 ft | 460 kts | 319° |
| 2026-04-25 21:49 | 14.08676 | -63.41835 | 33902 ft | 460 kts | 319° |
| 2026-04-25 21:50 | 14.13766 | -63.45869 | 33896 ft | 459 kts | 318° |
| 2026-04-25 21:50 | 14.18820 | -63.49876 | 33895 ft | 458 kts | 318° |
| 2026-04-25 21:51 | 14.23891 | -63.53900 | 33893 ft | 459 kts | 318° |
| 2026-04-25 21:51 | 14.28937 | -63.57905 | 33897 ft | 458 kts | 318° |
| 2026-04-25 21:52 | 14.34004 | -63.61931 | 33897 ft | 459 kts | 318° |
| 2026-04-25 21:52 | 14.39078 | -63.65964 | 33899 ft | 458 kts | 317° |
| 2026-04-25 21:53 | 14.44148 | -63.69996 | 33900 ft | 459 kts | 318° |
| 2026-04-25 21:53 | 14.49185 | -63.74004 | 33900 ft | 459 kts | 318° |
| 2026-04-25 21:54 | 14.54232 | -63.78022 | 33900 ft | 458 kts | 317° |
| 2026-04-25 21:54 | 14.59300 | -63.82059 | 33899 ft | 459 kts | 317° |
| 2026-04-25 21:55 | 14.64334 | -63.86072 | 33897 ft | 459 kts | 317° |
| 2026-04-25 21:55 | 14.69380 | -63.90094 | 33899 ft | 458 kts | 317° |
| 2026-04-25 21:56 | 14.74449 | -63.94138 | 33898 ft | 458 kts | 317° |
| 2026-04-25 21:56 | 14.79476 | -63.98154 | 33900 ft | 459 kts | 317° |
| 2026-04-25 21:57 | 14.84527 | -64.02191 | 33903 ft | 458 kts | 317° |
| 2026-04-25 21:57 | 14.89567 | -64.06220 | 33903 ft | 457 kts | 317° |
| 2026-04-25 21:58 | 14.94595 | -64.10242 | 33905 ft | 457 kts | 317° |
| 2026-04-25 21:58 | 14.99637 | -64.14278 | 33905 ft | 456 kts | 317° |
| 2026-04-25 21:59 | 15.04625 | -64.18333 | 33905 ft | 456 kts | 316° |
| 2026-04-25 21:59 | 15.09581 | -64.22448 | 33905 ft | 455 kts | 316° |
| 2026-04-25 22:00 | 15.16942 | -64.28577 | 33905 ft | 455 kts | 316° |
| 2026-04-25 22:00 | 15.21892 | -64.32694 | 33905 ft | 454 kts | 316° |
| 2026-04-25 22:01 | 15.26832 | -64.36795 | 33905 ft | 454 kts | 316° |
| 2026-04-25 22:01 | 15.30922 | -64.40192 | 33904 ft | 454 kts | 316° |
| 2026-04-25 22:02 | 15.36681 | -64.44977 | 33905 ft | 454 kts | 316° |
| 2026-04-25 22:02 | 15.41614 | -64.49077 | 33904 ft | 451 kts | 316° |
| 2026-04-25 22:03 | 15.46516 | -64.53152 | 33905 ft | 452 kts | 316° |
| 2026-04-25 22:03 | 15.51401 | -64.57217 | 33904 ft | 452 kts | 316° |
| 2026-04-25 22:04 | 15.56318 | -64.61310 | 33905 ft | 451 kts | 316° |
| 2026-04-25 22:04 | 15.61185 | -64.65366 | 33906 ft | 451 kts | 315° |
| 2026-04-25 22:05 | 15.66101 | -64.69466 | 33905 ft | 450 kts | 315° |
| 2026-04-25 22:05 | 15.70958 | -64.73516 | 33907 ft | 448 kts | 315° |
| 2026-04-25 22:06 | 15.75829 | -64.77581 | 33907 ft | 448 kts | 315° |
| 2026-04-25 22:06 | 15.80683 | -64.81637 | 33909 ft | 450 kts | 315° |
| 2026-04-25 22:07 | 15.84727 | -64.85016 | 33914 ft | 449 kts | 315° |
| 2026-04-25 22:07 | 15.90403 | -64.89762 | 33925 ft | 447 kts | 315° |
| 2026-04-25 22:08 | 15.95239 | -64.93810 | 33924 ft | 447 kts | 315° |
| 2026-04-25 22:08 | 16.00086 | -64.97868 | 33926 ft | 445 kts | 315° |
| 2026-04-25 22:09 | 16.04880 | -65.01883 | 33924 ft | 443 kts | 315° |
| 2026-04-25 22:09 | 16.09696 | -65.05925 | 33925 ft | 446 kts | 315° |
| 2026-04-25 22:10 | 16.14513 | -65.09969 | 33924 ft | 444 kts | 315° |
| 2026-04-25 22:10 | 16.19322 | -65.14005 | 33924 ft | 443 kts | 315° |
| 2026-04-25 22:11 | 16.24122 | -65.18040 | 33925 ft | 445 kts | 315° |
| 2026-04-25 22:11 | 16.28946 | -65.22092 | 33923 ft | 444 kts | 315° |
| 2026-04-25 22:12 | 16.33733 | -65.26120 | 33924 ft | 443 kts | 315° |
| 2026-04-25 22:12 | 16.37717 | -65.29474 | 33923 ft | 443 kts | 315° |
| 2026-04-25 22:13 | 16.43315 | -65.34190 | 33920 ft | 443 kts | 315° |
| 2026-04-25 22:13 | 16.48108 | -65.38228 | 33913 ft | 442 kts | 315° |
| 2026-04-25 22:14 | 16.52886 | -65.42259 | 33914 ft | 442 kts | 315° |
| 2026-04-25 22:14 | 16.57669 | -65.46297 | 33912 ft | 441 kts | 315° |
| 2026-04-25 22:15 | 16.62438 | -65.50324 | 33911 ft | 440 kts | 315° |
| 2026-04-25 22:16 | 16.69557 | -65.56338 | 33913 ft | 439 kts | 315° |
| 2026-04-25 22:16 | 16.74285 | -65.60340 | 33908 ft | 439 kts | 315° |
| 2026-04-25 22:17 | 16.79027 | -65.64356 | 33906 ft | 440 kts | 315° |
| 2026-04-25 22:17 | 16.83794 | -65.68392 | 33905 ft | 437 kts | 314° |
| 2026-04-25 22:18 | 16.88518 | -65.72397 | 33905 ft | 439 kts | 315° |
| 2026-04-25 22:18 | 16.93257 | -65.76417 | 33905 ft | 439 kts | 314° |
| 2026-04-25 22:19 | 16.97969 | -65.80412 | 33905 ft | 437 kts | 315° |
| 2026-04-25 22:19 | 17.02704 | -65.84435 | 33905 ft | 437 kts | 314° |
| 2026-04-25 22:20 | 17.07391 | -65.88417 | 33907 ft | 436 kts | 314° |
| 2026-04-25 22:20 | 17.12129 | -65.92447 | 33910 ft | 435 kts | 314° |
| 2026-04-25 22:21 | 17.16822 | -65.96441 | 33910 ft | 437 kts | 314° |
| 2026-04-25 22:21 | 17.21515 | -66.00440 | 33908 ft | 435 kts | 314° |
| 2026-04-25 22:22 | 17.26227 | -66.04452 | 33911 ft | 435 kts | 314° |
| 2026-04-25 22:22 | 17.30927 | -66.08460 | 33912 ft | 436 kts | 314° |
| 2026-04-25 22:23 | 17.35612 | -66.12457 | 33918 ft | 434 kts | 314° |
| 2026-04-25 22:23 | 17.40301 | -66.16462 | 33920 ft | 434 kts | 314° |
| 2026-04-25 22:24 | 17.44978 | -66.20459 | 33918 ft | 434 kts | 314° |
| 2026-04-25 22:24 | 17.49665 | -66.24466 | 33921 ft | 435 kts | 314° |
| 2026-04-25 22:25 | 17.54346 | -66.28468 | 33919 ft | 432 kts | 314° |
| 2026-04-25 22:25 | 17.58999 | -66.32454 | 33928 ft | 435 kts | 314° |
| 2026-04-25 22:26 | 17.63670 | -66.36455 | 33928 ft | 433 kts | 314° |
| 2026-04-25 22:26 | 17.68330 | -66.40449 | 33926 ft | 433 kts | 314° |
| 2026-04-25 22:27 | 17.72977 | -66.44437 | 33923 ft | 431 kts | 314° |
| 2026-04-25 22:27 | 17.77603 | -66.48408 | 33924 ft | 431 kts | 314° |
| 2026-04-25 22:28 | 17.82249 | -66.52401 | 33924 ft | 430 kts | 314° |
| 2026-04-25 22:28 | 17.86867 | -66.56374 | 33925 ft | 432 kts | 314° |
| 2026-04-25 22:29 | 17.91502 | -66.60358 | 33924 ft | 429 kts | 314° |
| 2026-04-25 22:29 | 17.96149 | -66.64359 | 33923 ft | 431 kts | 314° |
| 2026-04-25 22:30 | 18.03074 | -66.70325 | 33929 ft | 430 kts | 313° |
| 2026-04-25 22:30 | 18.06948 | -66.73666 | 33938 ft | 430 kts | 313° |
| 2026-04-25 22:31 | 18.12329 | -66.78310 | 33949 ft | 428 kts | 313° |
| 2026-04-25 22:31 | 18.16915 | -66.82272 | 33958 ft | 428 kts | 313° |
| 2026-04-25 22:32 | 18.21514 | -66.86247 | 33961 ft | 427 kts | 313° |
| 2026-04-25 22:32 | 18.26094 | -66.90211 | 33965 ft | 429 kts | 313° |
| 2026-04-25 22:33 | 18.30693 | -66.94188 | 33953 ft | 427 kts | 313° |
| 2026-04-25 22:33 | 18.35304 | -66.98182 | 33945 ft | 429 kts | 313° |
| 2026-04-25 22:34 | 18.39874 | -67.02142 | 33939 ft | 427 kts | 313° |
| 2026-04-25 22:34 | 18.44453 | -67.06111 | 33934 ft | 427 kts | 313° |
| 2026-04-25 22:35 | 18.48879 | -67.10274 | 33930 ft | 421 kts | 307° |
| 2026-04-25 22:35 | 18.52561 | -67.14970 | 33928 ft | 413 kts | 299° |
| 2026-04-25 22:36 | 18.55828 | -67.19920 | 33927 ft | 413 kts | 298° |
| 2026-04-25 22:36 | 18.59087 | -67.24902 | 33924 ft | 412 kts | 298° |
| 2026-04-25 22:37 | 18.62326 | -67.29858 | 33925 ft | 412 kts | 298° |
| 2026-04-25 22:37 | 18.65572 | -67.34828 | 33921 ft | 412 kts | 298° |
| 2026-04-25 22:38 | 18.68803 | -67.39784 | 33919 ft | 413 kts | 298° |
| 2026-04-25 22:38 | 18.72064 | -67.44783 | 33916 ft | 411 kts | 298° |
| 2026-04-25 22:39 | 18.75294 | -67.49744 | 33914 ft | 412 kts | 298° |
| 2026-04-25 22:39 | 18.78562 | -67.54762 | 33909 ft | 412 kts | 298° |
| 2026-04-25 22:40 | 18.81783 | -67.59712 | 33906 ft | 412 kts | 298° |
| 2026-04-25 22:40 | 18.85028 | -67.64704 | 33906 ft | 411 kts | 298° |
| 2026-04-25 22:41 | 18.88246 | -67.69658 | 33907 ft | 412 kts | 297° |
| 2026-04-25 22:41 | 18.91472 | -67.74629 | 33906 ft | 410 kts | 298° |
| 2026-04-25 22:42 | 18.94704 | -67.79617 | 33906 ft | 412 kts | 298° |
| 2026-04-25 22:42 | 18.97912 | -67.84567 | 33906 ft | 409 kts | 298° |
| 2026-04-25 22:43 | 19.01136 | -67.89552 | 33905 ft | 411 kts | 298° |
| 2026-04-25 22:43 | 19.04347 | -67.94509 | 33905 ft | 408 kts | 298° |
| 2026-04-25 22:44 | 19.07539 | -67.99449 | 33907 ft | 410 kts | 298° |
| 2026-04-25 22:44 | 19.10747 | -68.04418 | 33908 ft | 409 kts | 298° |
| 2026-04-25 22:45 | 19.13940 | -68.09365 | 33907 ft | 409 kts | 298° |
| 2026-04-25 22:45 | 19.17159 | -68.14361 | 33906 ft | 410 kts | 297° |
| 2026-04-25 22:46 | 19.20361 | -68.19329 | 33906 ft | 408 kts | 297° |
| 2026-04-25 22:46 | 19.23548 | -68.24283 | 33909 ft | 410 kts | 298° |
| 2026-04-25 22:47 | 19.26741 | -68.29241 | 33906 ft | 406 kts | 298° |
| 2026-04-25 22:47 | 19.29929 | -68.34207 | 33904 ft | 409 kts | 298° |
| 2026-04-25 22:48 | 19.33113 | -68.39165 | 33908 ft | 407 kts | 298° |
| 2026-04-25 22:48 | 19.36283 | -68.44100 | 33905 ft | 408 kts | 298° |
| 2026-04-25 22:49 | 19.39480 | -68.49088 | 33907 ft | 408 kts | 298° |
| 2026-04-25 22:49 | 19.42657 | -68.54048 | 33907 ft | 408 kts | 298° |
| 2026-04-25 22:50 | 19.45828 | -68.58997 | 33903 ft | 404 kts | 298° |
| 2026-04-25 22:50 | 19.48982 | -68.63935 | 33910 ft | 407 kts | 298° |
| 2026-04-25 22:51 | 19.52149 | -68.68890 | 33905 ft | 405 kts | 297° |
| 2026-04-25 22:51 | 19.55318 | -68.73852 | 33908 ft | 405 kts | 297° |
| 2026-04-25 22:52 | 19.58474 | -68.78798 | 33910 ft | 404 kts | 297° |
| 2026-04-25 22:52 | 19.61609 | -68.83717 | 33911 ft | 404 kts | 298° |
| 2026-04-25 22:53 | 19.64750 | -68.88647 | 33911 ft | 404 kts | 298° |
| 2026-04-25 22:53 | 19.67896 | -68.93585 | 33917 ft | 401 kts | 297° |
| 2026-04-25 22:54 | 19.71008 | -68.98486 | 33915 ft | 403 kts | 298° |
| 2026-04-25 22:54 | 19.74136 | -69.03410 | 33913 ft | 403 kts | 297° |
| 2026-04-25 22:55 | 19.77288 | -69.08375 | 33906 ft | 401 kts | 297° |
| 2026-04-25 22:55 | 19.80381 | -69.13242 | 33905 ft | 399 kts | 297° |
| 2026-04-25 22:56 | 19.83501 | -69.18166 | 33908 ft | 402 kts | 297° |
| 2026-04-25 22:56 | 19.86605 | -69.23072 | 33904 ft | 399 kts | 297° |
| 2026-04-25 22:57 | 19.89709 | -69.27976 | 33906 ft | 402 kts | 298° |
| 2026-04-25 22:57 | 19.92804 | -69.32868 | 33906 ft | 400 kts | 297° |
| 2026-04-25 22:58 | 19.95901 | -69.37770 | 33906 ft | 399 kts | 297° |
| 2026-04-25 22:58 | 19.98995 | -69.42673 | 33903 ft | 398 kts | 297° |
| 2026-04-25 22:59 | 20.02083 | -69.47571 | 33904 ft | 399 kts | 297° |
| 2026-04-25 22:59 | 20.05163 | -69.52459 | 33904 ft | 399 kts | 297° |
| 2026-04-25 23:00 | 20.08263 | -69.57382 | 33905 ft | 399 kts | 297° |
| 2026-04-25 23:00 | 20.11345 | -69.62279 | 33905 ft | 398 kts | 297° |
| 2026-04-25 23:01 | 20.14405 | -69.67148 | 33905 ft | 397 kts | 297° |
| 2026-04-25 23:01 | 20.17470 | -69.72028 | 33905 ft | 398 kts | 297° |
| 2026-04-25 23:02 | 20.20540 | -69.76920 | 33904 ft | 396 kts | 297° |
| 2026-04-25 23:02 | 20.23602 | -69.81805 | 33904 ft | 397 kts | 297° |
| 2026-04-25 23:03 | 20.26651 | -69.86671 | 33905 ft | 398 kts | 297° |
| 2026-04-25 23:03 | 20.29716 | -69.91564 | 33905 ft | 395 kts | 297° |
| 2026-04-25 23:04 | 20.32761 | -69.96430 | 33906 ft | 397 kts | 296° |
| 2026-04-25 23:04 | 20.35803 | -70.01303 | 33905 ft | 396 kts | 297° |
| 2026-04-25 23:05 | 20.38849 | -70.06178 | 33904 ft | 395 kts | 297° |
| 2026-04-25 23:05 | 20.41912 | -70.11088 | 33904 ft | 395 kts | 297° |
| 2026-04-25 23:06 | 20.44944 | -70.15953 | 33905 ft | 396 kts | 297° |
| 2026-04-25 23:06 | 20.48000 | -70.20865 | 33905 ft | 396 kts | 297° |
| 2026-04-25 23:07 | 20.51023 | -70.25717 | 33905 ft | 395 kts | 296° |
| 2026-04-25 23:07 | 20.54060 | -70.30604 | 33904 ft | 394 kts | 297° |
| 2026-04-25 23:08 | 20.57072 | -70.35448 | 33905 ft | 394 kts | 296° |
| 2026-04-25 23:08 | 20.60113 | -70.40350 | 33904 ft | 395 kts | 297° |
| 2026-04-25 23:09 | 20.63138 | -70.45225 | 33908 ft | 394 kts | 296° |
| 2026-04-25 23:09 | 20.66152 | -70.50090 | 33912 ft | 393 kts | 296° |
| 2026-04-25 23:10 | 20.69182 | -70.54983 | 33921 ft | 395 kts | 296° |
| 2026-04-25 23:10 | 20.72203 | -70.59862 | 33919 ft | 393 kts | 296° |
| 2026-04-25 23:11 | 20.75202 | -70.64712 | 33921 ft | 393 kts | 297° |
| 2026-04-25 23:11 | 20.78224 | -70.69609 | 33922 ft | 393 kts | 296° |
| 2026-04-25 23:12 | 20.81229 | -70.74477 | 33922 ft | 393 kts | 296° |
| 2026-04-25 23:12 | 20.84238 | -70.79359 | 33924 ft | 392 kts | 296° |
| 2026-04-25 23:13 | 20.87220 | -70.84200 | 33922 ft | 392 kts | 296° |
| 2026-04-25 23:13 | 20.90218 | -70.89073 | 33913 ft | 394 kts | 296° |
| 2026-04-25 23:14 | 20.93238 | -70.93983 | 33910 ft | 392 kts | 296° |
| 2026-04-25 23:14 | 20.96223 | -70.98840 | 33907 ft | 392 kts | 296° |
| 2026-04-25 23:15 | 20.99198 | -71.03687 | 33910 ft | 392 kts | 297° |
| 2026-04-25 23:15 | 21.02192 | -71.08565 | 33907 ft | 391 kts | 296° |
| 2026-04-25 23:16 | 21.05173 | -71.13429 | 33909 ft | 391 kts | 296° |
| 2026-04-25 23:16 | 21.08148 | -71.18289 | 33906 ft | 391 kts | 296° |
| 2026-04-25 23:17 | 21.11124 | -71.23151 | 33908 ft | 390 kts | 296° |
| 2026-04-25 23:17 | 21.14103 | -71.28027 | 33907 ft | 391 kts | 296° |
| 2026-04-25 23:18 | 21.17063 | -71.32873 | 33911 ft | 391 kts | 296° |
| 2026-04-25 23:18 | 21.20042 | -71.37751 | 33906 ft | 388 kts | 296° |
| 2026-04-25 23:19 | 21.22993 | -71.42587 | 33909 ft | 390 kts | 296° |
| 2026-04-25 23:19 | 21.25959 | -71.47462 | 33907 ft | 390 kts | 296° |
| 2026-04-25 23:20 | 21.28901 | -71.52296 | 33900 ft | 389 kts | 296° |
| 2026-04-25 23:20 | 21.31875 | -71.57189 | 33904 ft | 390 kts | 296° |
| 2026-04-25 23:21 | 21.34821 | -71.62035 | 33906 ft | 388 kts | 296° |
| 2026-04-25 23:21 | 21.37764 | -71.66884 | 33908 ft | 389 kts | 295° |
| 2026-04-25 23:22 | 21.40719 | -71.71756 | 33907 ft | 388 kts | 295° |
| 2026-04-25 23:23 | 21.45118 | -71.79013 | 33909 ft | 386 kts | 296° |
| 2026-04-25 23:23 | 21.48031 | -71.83831 | 33906 ft | 386 kts | 295° |
| 2026-04-25 23:24 | 21.50965 | -71.88683 | 33918 ft | 385 kts | 295° |
| 2026-04-25 23:24 | 21.53882 | -71.93516 | 33914 ft | 388 kts | 296° |
| 2026-04-25 23:25 | 21.56809 | -71.98363 | 33914 ft | 387 kts | 296° |
| 2026-04-25 23:25 | 21.59755 | -72.03243 | 33915 ft | 387 kts | 295° |
| 2026-04-25 23:26 | 21.62664 | -72.08071 | 33915 ft | 386 kts | 295° |
| 2026-04-25 23:26 | 21.65597 | -72.12945 | 33920 ft | 387 kts | 295° |
| 2026-04-25 23:27 | 21.68518 | -72.17802 | 33925 ft | 387 kts | 295° |
| 2026-04-25 23:27 | 21.71429 | -72.22644 | 33917 ft | 386 kts | 295° |
| 2026-04-25 23:28 | 21.74344 | -72.27499 | 33922 ft | 387 kts | 296° |
| 2026-04-25 23:28 | 21.77253 | -72.32346 | 33920 ft | 385 kts | 295° |
| 2026-04-25 23:29 | 21.80176 | -72.37223 | 33923 ft | 386 kts | 295° |
| 2026-04-25 23:29 | 21.83054 | -72.42023 | 33923 ft | 384 kts | 295° |
| 2026-04-25 23:30 | 21.85951 | -72.46868 | 33924 ft | 385 kts | 295° |
| 2026-04-25 23:30 | 21.88849 | -72.51719 | 33925 ft | 384 kts | 295° |
| 2026-04-25 23:31 | 21.91753 | -72.56576 | 33925 ft | 384 kts | 295° |
| 2026-04-25 23:31 | 21.94623 | -72.61390 | 33926 ft | 384 kts | 295° |
| 2026-04-25 23:32 | 21.97499 | -72.66213 | 33928 ft | 384 kts | 295° |
| 2026-04-25 23:32 | 22.00400 | -72.71084 | 33926 ft | 382 kts | 295° |
| 2026-04-25 23:33 | 22.03277 | -72.75919 | 33927 ft | 383 kts | 295° |
| 2026-04-25 23:33 | 22.06125 | -72.80708 | 33925 ft | 382 kts | 295° |
| 2026-04-25 23:34 | 22.09003 | -72.85555 | 33925 ft | 383 kts | 295° |
| 2026-04-25 23:34 | 22.11853 | -72.90360 | 33917 ft | 383 kts | 295° |
| 2026-04-25 23:35 | 22.14728 | -72.95210 | 33909 ft | 382 kts | 295° |
| 2026-04-25 23:35 | 22.17588 | -73.00038 | 33909 ft | 384 kts | 295° |
| 2026-04-25 23:36 | 22.20442 | -73.04855 | 33910 ft | 381 kts | 295° |
| 2026-04-25 23:36 | 22.23308 | -73.09701 | 33908 ft | 381 kts | 295° |
| 2026-04-25 23:37 | 22.26159 | -73.14533 | 33910 ft | 384 kts | 295° |
| 2026-04-25 23:37 | 22.28998 | -73.19340 | 33908 ft | 380 kts | 295° |
| 2026-04-25 23:38 | 22.31832 | -73.24144 | 33911 ft | 380 kts | 295° |
| 2026-04-25 23:38 | 22.34676 | -73.28975 | 33914 ft | 381 kts | 295° |
| 2026-04-25 23:39 | 22.37503 | -73.33772 | 33913 ft | 379 kts | 295° |
| 2026-04-25 23:39 | 22.40345 | -73.38613 | 33913 ft | 381 kts | 295° |
| 2026-04-25 23:40 | 22.43179 | -73.43433 | 33915 ft | 380 kts | 295° |
| 2026-04-25 23:40 | 22.46017 | -73.48268 | 33915 ft | 382 kts | 295° |
| 2026-04-25 23:41 | 22.48836 | -73.53071 | 33916 ft | 381 kts | 295° |
| 2026-04-25 23:41 | 22.51684 | -73.57931 | 33912 ft | 381 kts | 295° |
| 2026-04-25 23:42 | 22.54508 | -73.62752 | 33910 ft | 379 kts | 295° |
| 2026-04-25 23:42 | 22.57334 | -73.67585 | 33910 ft | 381 kts | 295° |
| 2026-04-25 23:43 | 22.60135 | -73.72372 | 33909 ft | 378 kts | 295° |
| 2026-04-25 23:43 | 22.62958 | -73.77205 | 33914 ft | 380 kts | 295° |
| 2026-04-25 23:44 | 22.65768 | -73.82024 | 33919 ft | 379 kts | 295° |
| 2026-04-25 23:44 | 22.68558 | -73.86816 | 33924 ft | 377 kts | 295° |
| 2026-04-25 23:45 | 22.71354 | -73.91619 | 33926 ft | 379 kts | 295° |
| 2026-04-25 23:45 | 22.74167 | -73.96455 | 33925 ft | 380 kts | 295° |
| 2026-04-25 23:46 | 22.76978 | -74.01287 | 33924 ft | 379 kts | 295° |
| 2026-04-25 23:46 | 22.79784 | -74.06122 | 33921 ft | 381 kts | 295° |
| 2026-04-25 23:47 | 22.82580 | -74.10941 | 33924 ft | 379 kts | 295° |
| 2026-04-25 23:47 | 22.85380 | -74.15774 | 33926 ft | 379 kts | 295° |
| 2026-04-25 23:48 | 22.88172 | -74.20599 | 33926 ft | 377 kts | 295° |
| 2026-04-25 23:48 | 22.90955 | -74.25414 | 33925 ft | 377 kts | 295° |
| 2026-04-25 23:49 | 22.93738 | -74.30228 | 33926 ft | 378 kts | 296° |
| 2026-04-25 23:49 | 22.96518 | -74.35043 | 33925 ft | 378 kts | 296° |
| 2026-04-25 23:50 | 22.99305 | -74.39864 | 33925 ft | 378 kts | 295° |
| 2026-04-25 23:50 | 23.02102 | -74.44722 | 33927 ft | 378 kts | 295° |
| 2026-04-25 23:51 | 23.04888 | -74.49565 | 33925 ft | 378 kts | 296° |
| 2026-04-25 23:51 | 23.07655 | -74.54370 | 33926 ft | 378 kts | 296° |
| 2026-04-25 23:52 | 23.10456 | -74.59248 | 33921 ft | 381 kts | 296° |
| 2026-04-25 23:52 | 23.13243 | -74.64102 | 33928 ft | 380 kts | 296° |
| 2026-04-25 23:53 | 23.16023 | -74.68946 | 33921 ft | 379 kts | 295° |
| 2026-04-25 23:53 | 23.18823 | -74.73833 | 33926 ft | 381 kts | 296° |
| 2026-04-25 23:54 | 23.21615 | -74.78709 | 33925 ft | 379 kts | 296° |
| 2026-04-25 23:54 | 23.24397 | -74.83572 | 33927 ft | 381 kts | 296° |
| 2026-04-25 23:55 | 23.27197 | -74.88474 | 33921 ft | 380 kts | 296° |
| 2026-04-25 23:55 | 23.29984 | -74.93354 | 33928 ft | 379 kts | 296° |
| 2026-04-25 23:56 | 23.32772 | -74.98245 | 33927 ft | 384 kts | 296° |
| 2026-04-25 23:56 | 23.35576 | -75.03164 | 33921 ft | 383 kts | 296° |
| 2026-04-25 23:57 | 23.38378 | -75.08089 | 33928 ft | 382 kts | 296° |
| 2026-04-25 23:57 | 23.41174 | -75.13007 | 33930 ft | 383 kts | 296° |
| 2026-04-25 23:58 | 23.43969 | -75.17924 | 33928 ft | 382 kts | 296° |
| 2026-04-25 23:58 | 23.46785 | -75.22884 | 33927 ft | 385 kts | 296° |
| 2026-04-25 23:59 | 23.49584 | -75.27821 | 33929 ft | 384 kts | 297° |
| 2026-04-25 23:59 | 23.52382 | -75.32758 | 33926 ft | 383 kts | 296° |
| 2026-04-26 00:00 | 23.55190 | -75.37721 | 33913 ft | 386 kts | 297° |
| 2026-04-26 00:00 | 23.58005 | -75.42699 | 33920 ft | 387 kts | 297° |
| 2026-04-26 00:01 | 23.60841 | -75.47725 | 33917 ft | 387 kts | 297° |
| 2026-04-26 00:01 | 23.63656 | -75.52713 | 33925 ft | 388 kts | 297° |
| 2026-04-26 00:02 | 23.66493 | -75.57748 | 33922 ft | 389 kts | 297° |
| 2026-04-26 00:02 | 23.69334 | -75.62791 | 33934 ft | 390 kts | 297° |
| 2026-04-26 00:03 | 23.72179 | -75.67847 | 33945 ft | 388 kts | 297° |
| 2026-04-26 00:03 | 23.74991 | -75.72852 | 33940 ft | 390 kts | 297° |
| 2026-04-26 00:04 | 23.77829 | -75.77905 | 33937 ft | 388 kts | 297° |
| 2026-04-26 00:04 | 23.80655 | -75.82947 | 33939 ft | 391 kts | 297° |
| 2026-04-26 00:05 | 23.83486 | -75.87997 | 33941 ft | 390 kts | 297° |
| 2026-04-26 00:05 | 23.86317 | -75.93058 | 33942 ft | 391 kts | 297° |
| 2026-04-26 00:06 | 23.89158 | -75.98136 | 33944 ft | 391 kts | 297° |
| 2026-04-26 00:06 | 23.91996 | -76.03217 | 33938 ft | 392 kts | 297° |
| 2026-04-26 00:07 | 23.94842 | -76.08319 | 33928 ft | 392 kts | 298° |
| 2026-04-26 00:07 | 23.97686 | -76.13423 | 33926 ft | 394 kts | 298° |
| 2026-04-26 00:08 | 24.00518 | -76.18509 | 33921 ft | 394 kts | 298° |
| 2026-04-26 00:08 | 24.03369 | -76.23631 | 33929 ft | 396 kts | 298° |
| 2026-04-26 00:09 | 24.06235 | -76.28790 | 33930 ft | 398 kts | 298° |
| 2026-04-26 00:09 | 24.09099 | -76.33947 | 33929 ft | 396 kts | 298° |
| 2026-04-26 00:10 | 24.11975 | -76.39134 | 33928 ft | 397 kts | 298° |
| 2026-04-26 00:10 | 24.14837 | -76.44300 | 33930 ft | 396 kts | 299° |
| 2026-04-26 00:11 | 24.17709 | -76.49493 | 33930 ft | 399 kts | 299° |
| 2026-04-26 00:11 | 24.20557 | -76.54644 | 33932 ft | 397 kts | 299° |
| 2026-04-26 00:12 | 24.23443 | -76.59873 | 33933 ft | 400 kts | 299° |
| 2026-04-26 00:12 | 24.26309 | -76.65067 | 33932 ft | 398 kts | 299° |
| 2026-04-26 00:13 | 24.29174 | -76.70267 | 33931 ft | 400 kts | 299° |
| 2026-04-26 00:13 | 24.32054 | -76.75501 | 33931 ft | 399 kts | 299° |
| 2026-04-26 00:14 | 24.34933 | -76.80737 | 33934 ft | 402 kts | 299° |
| 2026-04-26 00:14 | 24.37822 | -76.85995 | 33931 ft | 401 kts | 299° |
| 2026-04-26 00:15 | 24.40718 | -76.91277 | 33937 ft | 407 kts | 299° |
| 2026-04-26 00:15 | 24.43617 | -76.96564 | 33936 ft | 403 kts | 299° |
| 2026-04-26 00:16 | 24.46500 | -77.01829 | 33936 ft | 404 kts | 300° |
| 2026-04-26 00:16 | 24.49398 | -77.07131 | 33938 ft | 405 kts | 300° |
| 2026-04-26 00:17 | 24.52290 | -77.12430 | 33935 ft | 406 kts | 300° |
| 2026-04-26 00:17 | 24.55194 | -77.17754 | 33934 ft | 407 kts | 300° |
| 2026-04-26 00:18 | 24.58109 | -77.23098 | 33936 ft | 408 kts | 300° |
| 2026-04-26 00:18 | 24.61020 | -77.28447 | 33933 ft | 409 kts | 300° |
| 2026-04-26 00:19 | 24.63930 | -77.33799 | 33935 ft | 408 kts | 300° |
| 2026-04-26 00:19 | 24.66827 | -77.39131 | 33941 ft | 410 kts | 300° |
| 2026-04-26 00:20 | 24.69755 | -77.44524 | 33947 ft | 409 kts | 300° |
| 2026-04-26 00:20 | 24.72664 | -77.49893 | 33947 ft | 412 kts | 300° |
| 2026-04-26 00:21 | 24.75612 | -77.55341 | 33942 ft | 412 kts | 300° |
| 2026-04-26 00:21 | 24.78542 | -77.60754 | 33950 ft | 412 kts | 300° |
| 2026-04-26 00:22 | 24.81478 | -77.66188 | 33949 ft | 415 kts | 300° |
| 2026-04-26 00:22 | 24.84407 | -77.71619 | 33949 ft | 412 kts | 300° |
| 2026-04-26 00:23 | 24.87361 | -77.77102 | 33949 ft | 416 kts | 300° |
| 2026-04-26 00:23 | 24.90304 | -77.82568 | 33948 ft | 415 kts | 300° |
| 2026-04-26 00:24 | 24.93257 | -77.88060 | 33946 ft | 416 kts | 300° |
| 2026-04-26 00:24 | 24.96187 | -77.93515 | 33944 ft | 415 kts | 300° |
| 2026-04-26 00:25 | 24.99129 | -77.99000 | 33947 ft | 418 kts | 301° |
| 2026-04-26 00:25 | 25.02098 | -78.04541 | 33946 ft | 418 kts | 301° |
| 2026-04-26 00:26 | 25.05059 | -78.10074 | 33946 ft | 417 kts | 301° |
| 2026-04-26 00:26 | 25.07940 | -78.15462 | 33757 ft | 400 kts | 301° |
| 2026-04-26 00:26 | 25.09336 | -78.18076 | 33460 ft | 392 kts | 301° |
| 2026-04-26 00:27 | 25.10715 | -78.20660 | 33063 ft | 387 kts | 301° |
| 2026-04-26 00:27 | 25.12063 | -78.23187 | 32598 ft | 384 kts | 301° |
| 2026-04-26 00:27 | 25.13412 | -78.25717 | 32123 ft | 380 kts | 301° |
| 2026-04-26 00:27 | 25.14734 | -78.28198 | 31658 ft | 377 kts | 302° |
| 2026-04-26 00:28 | 25.16060 | -78.30688 | 31184 ft | 374 kts | 302° |
| 2026-04-26 00:28 | 25.17361 | -78.33133 | 30724 ft | 371 kts | 302° |
| 2026-04-26 00:28 | 25.18651 | -78.35559 | 30261 ft | 368 kts | 302° |
| 2026-04-26 00:28 | 25.19949 | -78.38001 | 29796 ft | 365 kts | 302° |
| 2026-04-26 00:29 | 25.21223 | -78.40400 | 29340 ft | 362 kts | 303° |
| 2026-04-26 00:29 | 25.22478 | -78.42763 | 28910 ft | 359 kts | 303° |
| 2026-04-26 00:29 | 25.23747 | -78.45151 | 28454 ft | 357 kts | 302° |
| 2026-04-26 00:29 | 25.24999 | -78.47508 | 28005 ft | 355 kts | 302° |
| 2026-04-26 00:30 | 25.26233 | -78.49834 | 27556 ft | 352 kts | 302° |
| 2026-04-26 00:30 | 25.27464 | -78.52155 | 27104 ft | 350 kts | 302° |
| 2026-04-26 00:30 | 25.28693 | -78.54473 | 26655 ft | 348 kts | 302° |
| 2026-04-26 00:30 | 25.29900 | -78.56754 | 26218 ft | 345 kts | 302° |
| 2026-04-26 00:31 | 25.31112 | -78.59043 | 25776 ft | 343 kts | 302° |
| 2026-04-26 00:31 | 25.32294 | -78.61277 | 25340 ft | 341 kts | 302° |
| 2026-04-26 00:31 | 25.33490 | -78.63538 | 24902 ft | 338 kts | 301° |
| 2026-04-26 00:31 | 25.34664 | -78.65758 | 24466 ft | 336 kts | 301° |
| 2026-04-26 00:32 | 25.35842 | -78.67989 | 24033 ft | 333 kts | 301° |
| 2026-04-26 00:32 | 25.36996 | -78.70172 | 23602 ft | 331 kts | 301° |
| 2026-04-26 00:32 | 25.39307 | -78.74551 | 22745 ft | 327 kts | 300° |
| 2026-04-26 00:33 | 25.40435 | -78.76691 | 22329 ft | 324 kts | 300° |
| 2026-04-26 00:33 | 25.41568 | -78.78841 | 21908 ft | 322 kts | 300° |
| 2026-04-26 00:33 | 25.42693 | -78.80978 | 21488 ft | 320 kts | 300° |
| 2026-04-26 00:33 | 25.43798 | -78.83076 | 21076 ft | 318 kts | 300° |
| 2026-04-26 00:34 | 25.44905 | -78.85178 | 20666 ft | 316 kts | 300° |
| 2026-04-26 00:34 | 25.46011 | -78.87279 | 20251 ft | 314 kts | 300° |
| 2026-04-26 00:34 | 25.47096 | -78.89342 | 19844 ft | 312 kts | 300° |
| 2026-04-26 00:34 | 25.48186 | -78.91417 | 19435 ft | 310 kts | 300° |
| 2026-04-26 00:35 | 25.49255 | -78.93453 | 19034 ft | 308 kts | 300° |
| 2026-04-26 00:35 | 25.50320 | -78.95481 | 18633 ft | 306 kts | 300° |
| 2026-04-26 00:35 | 25.51392 | -78.97525 | 18236 ft | 312 kts | 300° |
| 2026-04-26 00:35 | 25.52502 | -78.99641 | 17966 ft | 320 kts | 300° |
| 2026-04-26 00:36 | 25.53618 | -79.01769 | 17819 ft | 323 kts | 300° |
| 2026-04-26 00:36 | 25.54756 | -79.03939 | 17352 ft | 326 kts | 300° |
| 2026-04-26 00:36 | 25.55897 | -79.06115 | 16922 ft | 324 kts | 300° |
| 2026-04-26 00:36 | 25.57009 | -79.08240 | 16500 ft | 322 kts | 300° |
| 2026-04-26 00:37 | 25.58136 | -79.10394 | 16072 ft | 320 kts | 300° |
| 2026-04-26 00:37 | 25.59241 | -79.12506 | 15652 ft | 317 kts | 301° |
| 2026-04-26 00:37 | 25.60336 | -79.14599 | 15233 ft | 315 kts | 301° |
| 2026-04-26 00:37 | 25.61430 | -79.16692 | 14814 ft | 313 kts | 301° |
| 2026-04-26 00:38 | 25.62525 | -79.18787 | 14398 ft | 311 kts | 301° |
| 2026-04-26 00:38 | 25.63592 | -79.20830 | 13988 ft | 309 kts | 301° |
| 2026-04-26 00:38 | 25.64671 | -79.22897 | 13573 ft | 307 kts | 301° |
| 2026-04-26 00:38 | 25.65733 | -79.24932 | 13166 ft | 305 kts | 301° |
| 2026-04-26 00:39 | 25.66790 | -79.26958 | 12762 ft | 303 kts | 301° |
| 2026-04-26 00:39 | 25.67836 | -79.28963 | 12358 ft | 302 kts | 301° |
| 2026-04-26 00:39 | 25.68887 | -79.30979 | 11955 ft | 300 kts | 301° |
| 2026-04-26 00:39 | 25.69919 | -79.32961 | 11554 ft | 298 kts | 301° |
| 2026-04-26 00:40 | 25.70956 | -79.34952 | 11155 ft | 297 kts | 301° |
| 2026-04-26 00:40 | 25.71978 | -79.36915 | 10760 ft | 295 kts | 301° |
| 2026-04-26 00:40 | 25.72993 | -79.38866 | 10366 ft | 294 kts | 301° |
| 2026-04-26 00:40 | 25.74006 | -79.40815 | 10063 ft | 289 kts | 300° |
| 2026-04-26 00:41 | 25.74999 | -79.42728 | 9937 ft | 277 kts | 300° |
| 2026-04-26 00:41 | 25.75941 | -79.44541 | 9662 ft | 273 kts | 300° |
| 2026-04-26 00:41 | 25.76891 | -79.46369 | 9296 ft | 271 kts | 301° |
| 2026-04-26 00:41 | 25.77828 | -79.48174 | 8962 ft | 268 kts | 301° |
| 2026-04-26 00:42 | 25.78744 | -79.49938 | 8638 ft | 266 kts | 301° |
| 2026-04-26 00:42 | 25.79663 | -79.51711 | 8311 ft | 263 kts | 301° |
| 2026-04-26 00:42 | 25.80574 | -79.53469 | 7979 ft | 261 kts | 301° |
| 2026-04-26 00:42 | 25.81467 | -79.55193 | 7660 ft | 259 kts | 301° |
| 2026-04-26 00:43 | 25.82368 | -79.56930 | 7336 ft | 256 kts | 301° |
| 2026-04-26 00:43 | 25.83248 | -79.58630 | 7132 ft | 250 kts | 301° |
| 2026-04-26 00:43 | 25.84075 | -79.60317 | 7204 ft | 255 kts | 297° |
| 2026-04-26 00:43 | 25.84832 | -79.62170 | 7193 ft | 268 kts | 294° |
| 2026-04-26 00:44 | 25.85537 | -79.64082 | 7196 ft | 267 kts | 293° |
| 2026-04-26 00:44 | 25.86264 | -79.65966 | 7197 ft | 268 kts | 295° |
| 2026-04-26 00:44 | 25.87057 | -79.67841 | 7198 ft | 266 kts | 296° |
| 2026-04-26 00:44 | 25.87868 | -79.69696 | 7198 ft | 266 kts | 296° |
| 2026-04-26 00:45 | 25.88671 | -79.71537 | 7199 ft | 267 kts | 296° |
| 2026-04-26 00:45 | 25.89477 | -79.73399 | 7197 ft | 266 kts | 296° |
| 2026-04-26 00:45 | 25.90268 | -79.75244 | 7196 ft | 267 kts | 296° |
| 2026-04-26 00:45 | 25.91059 | -79.77101 | 7194 ft | 266 kts | 296° |
| 2026-04-26 00:46 | 25.91850 | -79.78960 | 7196 ft | 267 kts | 296° |
| 2026-04-26 00:46 | 25.92648 | -79.80833 | 7195 ft | 266 kts | 296° |
| 2026-04-26 00:46 | 25.93444 | -79.82703 | 7194 ft | 267 kts | 296° |
| 2026-04-26 00:46 | 25.94233 | -79.84555 | 7191 ft | 266 kts | 296° |
| 2026-04-26 00:47 | 25.95025 | -79.86416 | 7192 ft | 267 kts | 296° |
| 2026-04-26 00:47 | 25.95817 | -79.88279 | 7193 ft | 266 kts | 296° |
| 2026-04-26 00:47 | 25.96602 | -79.90122 | 7201 ft | 267 kts | 296° |
| 2026-04-26 00:47 | 25.97405 | -79.92008 | 7200 ft | 267 kts | 296° |
| 2026-04-26 00:48 | 25.98196 | -79.93870 | 7199 ft | 266 kts | 296° |
| 2026-04-26 00:48 | 25.99080 | -79.95670 | 7191 ft | 266 kts | 306° |
| 2026-04-26 00:48 | 26.00222 | -79.97257 | 7036 ft | 259 kts | 313° |
| 2026-04-26 00:48 | 26.01463 | -79.98712 | 6613 ft | 261 kts | 315° |
| 2026-04-26 00:49 | 26.02719 | -80.00164 | 6223 ft | 261 kts | 314° |
| 2026-04-26 00:49 | 26.03952 | -80.01634 | 5972 ft | 257 kts | 313° |
| 2026-04-26 00:49 | 26.05145 | -80.03091 | 5980 ft | 261 kts | 313° |
| 2026-04-26 00:49 | 26.06366 | -80.04599 | 5972 ft | 261 kts | 313° |
| 2026-04-26 00:50 | 26.07584 | -80.06108 | 5974 ft | 261 kts | 313° |
| 2026-04-26 00:50 | 26.08799 | -80.07613 | 5973 ft | 261 kts | 313° |
| 2026-04-26 00:50 | 26.10011 | -80.09113 | 5975 ft | 263 kts | 313° |
| 2026-04-26 00:50 | 26.11247 | -80.10642 | 5973 ft | 263 kts | 313° |
| 2026-04-26 00:51 | 26.12471 | -80.12157 | 5975 ft | 264 kts | 313° |
| 2026-04-26 00:51 | 26.13699 | -80.13680 | 5977 ft | 264 kts | 311° |
| 2026-04-26 00:51 | 26.14762 | -80.15336 | 5975 ft | 264 kts | 296° |
| 2026-04-26 00:51 | 26.15231 | -80.17312 | 5853 ft | 268 kts | 274° |
| 2026-04-26 00:52 | 26.15223 | -80.19379 | 5614 ft | 266 kts | 268° |
| 2026-04-26 00:52 | 26.15129 | -80.21439 | 5372 ft | 266 kts | 268° |
| 2026-04-26 00:52 | 26.15072 | -80.23523 | 5129 ft | 268 kts | 270° |
| 2026-04-26 00:52 | 26.15061 | -80.25571 | 4984 ft | 264 kts | 270° |
| 2026-04-26 00:53 | 26.15069 | -80.27629 | 4967 ft | 267 kts | 271° |
| 2026-04-26 00:53 | 26.15083 | -80.29689 | 4796 ft | 268 kts | 271° |
| 2026-04-26 00:53 | 26.15094 | -80.31753 | 4626 ft | 266 kts | 271° |
| 2026-04-26 00:53 | 26.15103 | -80.33823 | 4458 ft | 266 kts | 270° |
| 2026-04-26 00:54 | 26.15106 | -80.35880 | 4290 ft | 267 kts | 269° |
| 2026-04-26 00:54 | 26.15072 | -80.37920 | 4122 ft | 266 kts | 268° |
| 2026-04-26 00:54 | 26.15019 | -80.39976 | 3989 ft | 263 kts | 268° |
| 2026-04-26 00:54 | 26.14967 | -80.42016 | 3984 ft | 265 kts | 268° |
| 2026-04-26 00:55 | 26.14920 | -80.44065 | 3981 ft | 265 kts | 268° |
| 2026-04-26 00:55 | 26.14877 | -80.46119 | 3981 ft | 265 kts | 268° |
| 2026-04-26 00:55 | 26.14835 | -80.48171 | 3982 ft | 265 kts | 268° |
| 2026-04-26 00:55 | 26.14794 | -80.50220 | 3981 ft | 265 kts | 268° |
| 2026-04-26 00:56 | 26.14403 | -80.52185 | 3977 ft | 264 kts | 240° |
| 2026-04-26 00:56 | 26.13133 | -80.53625 | 3981 ft | 260 kts | 205° |
| 2026-04-26 00:56 | 26.11451 | -80.53984 | 3981 ft | 242 kts | 169° |
| 2026-04-26 00:56 | 26.09977 | -80.53180 | 3992 ft | 238 kts | 134° |
| 2026-04-26 00:57 | 26.08906 | -80.51691 | 3979 ft | 252 kts | 124° |
| 2026-04-26 00:57 | 26.07938 | -80.50084 | 3963 ft | 253 kts | 123° |
| 2026-04-26 00:57 | 26.06986 | -80.48408 | 3810 ft | 254 kts | 120° |
| 2026-04-26 00:57 | 26.06191 | -80.46670 | 3675 ft | 251 kts | 111° |
| 2026-04-26 00:58 | 26.05698 | -80.44808 | 3545 ft | 252 kts | 101° |
| 2026-04-26 00:58 | 26.05729 | -80.42890 | 3401 ft | 253 kts | 73° |
| 2026-04-26 00:58 | 26.06544 | -80.41162 | 3290 ft | 252 kts | 58° |
| 2026-04-26 00:58 | 26.07559 | -80.39558 | 3153 ft | 253 kts | 56° |
| 2026-04-26 00:59 | 26.08531 | -80.37953 | 3165 ft | 248 kts | 62° |
| 2026-04-26 00:59 | 26.09331 | -80.36259 | 3167 ft | 251 kts | 66° |
| 2026-04-26 00:59 | 26.09886 | -80.34432 | 3162 ft | 249 kts | 86° |
| 2026-04-26 00:59 | 26.09815 | -80.32507 | 3174 ft | 248 kts | 98° |
| 2026-04-26 01:00 | 26.09558 | -80.30621 | 3169 ft | 248 kts | 102° |
| 2026-04-26 01:00 | 26.09015 | -80.28789 | 3170 ft | 249 kts | 114° |
| 2026-04-26 01:00 | 26.08270 | -80.27044 | 3146 ft | 246 kts | 116° |
| 2026-04-26 01:00 | 26.07651 | -80.25349 | 3106 ft | 227 kts | 104° |
| 2026-04-26 01:01 | 26.07484 | -80.23745 | 2979 ft | 197 kts | 97° |
| 2026-04-26 01:01 | 26.07421 | -80.22245 | 2448 ft | 196 kts | 88° |
| 2026-04-26 01:01 | 26.07472 | -80.20690 | 1586 ft | 207 kts | 81° |
| 2026-04-26 01:01 | 26.07687 | -80.19134 | 767 ft | 209 kts | 77° |
| 2026-04-26 01:02 | 26.07762 | -80.17607 | 430 ft | 191 kts | 101° |
| 2026-04-26 01:02 | 26.07678 | -80.16138 | 32 ft | 188 kts | 88° |
| 2026-04-26 01:02 | 26.07676 | -80.14785 | 19 ft | 167 kts | 94° |
| 2026-04-26 01:02 | 26.07711 | -80.13659 | 11 ft | 115 kts | 88° |